Time;durP1;ratioP1;P1;durP2;ratioP2;P2;SDS_P1;SDS_P2;PMS_P1;PMS_P2;Temp;Humidity;BMP_temperature;BMP_pressure;BME280_temperature;BME280_humidity;BME280_pressure;Samples;Min_cycle;Max_cycle;Signal;HPM_P1;HPM_P2
2022/05/24 00:02:20;;;;;;;4.45;2.67;;;17.30;99.90;;;17.59;86.84;99649.63;5168280;28;20050;-71
2022/05/24 00:04:53;;;;;;;3.80;2.42;;;17.30;99.90;;;17.59;86.86;99660.16;5168549;28;20046;-71
2022/05/24 00:07:25;;;;;;;3.53;2.45;;;17.30;99.90;;;17.60;87.02;99647.84;5168131;28;20057;-72
2022/05/24 00:09:57;;;;;;;2.67;2.05;;;17.30;99.90;;;17.59;87.34;99647.00;5167713;28;20422;-71
2022/05/24 00:12:30;;;;;;;4.55;2.42;;;17.30;99.90;;;17.59;87.59;99648.75;5168019;28;20138;-71
2022/05/24 00:17:58;;;;;;;3.63;2.30;;;17.30;99.90;;;17.60;88.49;99647.84;5167962;28;20053;-70
2022/05/24 00:20:36;;;;;;;3.88;2.58;;;17.30;99.90;;;17.61;88.46;99653.13;5167863;28;20065;-71
2022/05/24 00:23:09;;;;;;;3.65;2.30;;;17.30;99.90;;;17.61;88.89;99655.78;5167952;28;20061;-71
2022/05/24 00:25:44;;;;;;;4.65;2.70;;;17.30;99.90;;;17.60;88.51;99659.31;5168167;28;20056;-71
2022/05/24 00:28:17;;;;;;;3.63;2.15;;;17.30;99.90;;;17.60;88.19;99659.31;5167427;28;20042;-71
2022/05/24 00:30:51;;;;;;;2.85;2.22;;;17.30;99.90;;;17.61;87.66;99649.63;5167840;28;20415;-71
2022/05/24 00:33:23;;;;;;;4.13;2.45;;;17.30;99.90;;;17.61;87.38;99647.88;5167591;28;20057;-71
2022/05/24 00:35:57;;;;;;;3.53;2.60;;;17.30;99.90;;;17.60;87.26;99647.84;5167757;28;20403;-71
2022/05/24 00:38:33;;;;;;;3.38;2.22;;;17.30;99.90;;;17.61;86.69;99644.38;5167492;28;20077;-70
2022/05/24 00:41:25;;;;;;;3.90;2.40;;;17.30;99.90;;;17.61;86.92;99634.69;5167521;28;20054;-71
2022/05/24 00:44:01;;;;;;;3.40;2.00;;;17.30;99.90;;;17.60;87.33;99638.22;5166716;28;20079;-71
2022/05/24 00:46:42;;;;;;;2.88;2.08;;;17.30;99.90;;;17.60;88.11;99637.31;5167839;28;20710;-72
2022/05/24 00:49:18;;;;;;;3.03;2.03;;;17.30;99.90;;;17.58;88.24;99628.56;5167161;28;20058;-71
2022/05/24 00:51:57;;;;;;;4.03;2.30;;;17.30;99.90;;;17.55;88.33;99613.69;5167117;28;20492;-70
2022/05/24 00:54:29;;;;;;;2.88;1.80;;;17.30;99.90;;;17.56;88.22;99620.69;5167625;28;20054;-71
2022/05/24 00:57:07;;;;;;;3.03;1.95;;;17.20;99.90;;;17.57;88.61;99606.63;5167092;28;20407;-71
2022/05/24 00:59:46;;;;;;;3.47;2.25;;;17.20;99.90;;;17.57;88.79;99619.78;5166874;28;20046;-70
2022/05/24 01:02:18;;;;;;;2.80;1.80;;;17.30;99.90;;;17.58;89.24;99608.38;5166415;28;20054;-70
2022/05/24 01:04:50;;;;;;;3.08;2.33;;;17.30;99.90;;;17.58;89.23;99607.50;5167446;28;20480;-70
2022/05/24 01:07:24;;;;;;;4.47;2.03;;;17.30;99.90;;;17.56;88.85;99604.88;5166968;28;20047;-72
2022/05/24 01:10:01;;;;;;;2.53;2.03;;;17.30;99.90;;;17.56;89.33;99604.88;5166733;28;20046;-72
2022/05/24 01:12:39;;;;;;;3.67;2.20;;;17.30;99.90;;;17.55;90.08;99613.69;5166845;28;20061;-70
2022/05/24 01:15:12;;;;;;;2.70;1.73;;;17.20;99.90;;;17.54;90.80;99614.59;5167076;28;20085;-71
2022/05/24 01:17:45;;;;;;;2.78;2.17;;;17.20;99.90;;;17.52;91.06;99613.72;5166905;28;20507;-72
2022/05/24 01:20:18;;;;;;;4.25;2.17;;;17.20;99.90;;;17.51;91.28;99617.22;5166734;28;20055;-71
2022/05/24 01:23:23;;;;;;;2.97;2.10;;;17.20;99.90;;;17.49;91.84;99608.50;5166484;28;20047;-72
2022/05/24 01:26:05;;;;;;;2.42;2.00;;;17.20;99.90;;;17.49;92.03;99612.88;5166524;28;20050;-71
2022/05/24 01:28:43;;;;;;;2.90;1.80;;;17.20;99.90;;;17.50;92.36;99620.75;5166122;28;20050;-71
2022/05/24 01:31:15;;;;;;;3.22;2.15;;;17.20;99.90;;;17.50;92.30;99625.16;5166414;28;20058;-70
2022/05/24 01:36:40;;;;;;;3.22;1.83;;;17.20;99.90;;;17.50;91.27;99631.31;5160343;28;20136;-70
2022/05/24 01:39:12;;;;;;;2.90;1.63;;;17.20;99.90;;;17.50;90.83;99626.03;5166007;28;20054;-70
2022/05/24 01:41:48;;;;;;;3.13;2.22;;;17.20;99.90;;;17.51;90.29;99630.41;5166604;28;20505;-71
2022/05/24 01:44:28;;;;;;;3.17;2.00;;;17.20;99.90;;;17.49;89.40;99637.47;5166323;28;20060;-71
2022/05/24 01:47:01;;;;;;;3.70;1.98;;;17.20;99.90;;;17.50;89.23;99633.06;5166414;28;20058;-71
2022/05/24 01:49:38;;;;;;;2.50;1.90;;;17.20;99.90;;;17.51;89.32;99638.31;5165860;28;20419;-71
2022/05/24 01:52:19;;;;;;;3.00;2.00;;;17.20;99.90;;;17.50;88.83;99620.75;5166297;28;20062;-70
2022/05/24 01:54:56;;;;;;;5.80;2.90;;;17.20;99.90;;;17.49;88.51;99618.16;5166039;28;20050;-71
2022/05/24 01:57:31;;;;;;;4.63;2.90;;;17.20;99.90;;;17.48;88.20;99622.56;5166209;28;20058;-71
2022/05/24 02:00:09;;;;;;;4.55;2.72;;;17.20;99.90;;;17.49;87.88;99618.16;5165732;28;20047;-71
2022/05/24 02:02:42;;;;;;;3.85;2.35;;;17.20;99.90;;;17.50;87.89;99619.91;5165647;28;20057;-71
2022/05/24 02:05:29;;;;;;;3.97;2.60;;;17.20;99.90;;;17.50;87.58;99623.41;5166038;28;20431;-70
2022/05/24 02:08:02;;;;;;;4.70;3.15;;;17.20;99.90;;;17.49;87.58;99613.75;5165827;28;20054;-71
2022/05/24 02:10:41;;;;;;;5.13;3.00;;;17.20;99.90;;;17.52;87.45;99613.72;5165422;28;20055;-71
2022/05/24 02:13:18;;;;;;;5.75;3.10;;;17.20;99.90;;;17.52;87.73;99608.44;5165605;28;20054;-71
2022/05/24 02:15:55;;;;;;;6.30;2.88;;;17.20;99.90;;;17.54;87.55;99609.31;5165731;28;20046;-71
2022/05/24 02:18:29;;;;;;;5.47;2.90;;;17.20;99.90;;;17.53;87.63;99610.19;5165439;28;20540;-70
2022/05/24 02:21:02;;;;;;;6.55;3.38;;;17.30;99.90;;;17.52;87.40;99613.72;5165790;28;20053;-71
2022/05/24 02:23:41;;;;;;;5.38;2.67;;;17.20;99.90;;;17.50;87.33;99596.19;5165235;28;20054;-71
2022/05/24 02:26:14;;;;;;;5.50;2.72;;;17.30;99.90;;;17.48;87.21;99588.31;5165644;28;20050;-71
2022/05/24 02:28:51;;;;;;;7.28;3.95;;;17.20;99.90;;;17.42;86.16;99590.16;5165038;28;20046;-71
2022/05/24 02:31:26;;;;;;;5.50;3.03;;;17.20;99.90;;;17.42;86.57;99591.03;5165508;28;20083;-70
2022/05/24 02:33:58;;;;;;;4.28;2.25;;;17.20;99.90;;;17.46;87.04;99599.75;5165401;28;20058;-71
2022/05/24 02:36:30;;;;;;;4.18;2.40;;;17.20;99.90;;;17.49;87.06;99600.59;5165166;28;20050;-71
2022/05/24 02:39:03;;;;;;;4.63;2.22;;;17.20;99.90;;;17.50;87.61;99609.34;5165084;28;20046;-71
2022/05/24 02:41:36;;;;;;;2.65;1.88;;;17.20;99.90;;;17.50;88.73;99610.22;5165292;28;20156;-71
2022/05/24 02:44:11;;;;;;;3.20;2.13;;;17.20;99.90;;;17.45;89.86;99614.69;5165193;28;20504;-69
2022/05/24 02:46:48;;;;;;;5.20;2.72;;;17.20;99.90;;;17.37;91.30;99621.81;5164999;28;20054;-69
2022/05/24 02:49:20;;;;;;;6.18;3.35;;;17.20;99.90;;;17.24;92.90;99610.53;5165220;28;20694;-69
2022/05/24 02:51:52;;;;;;;7.05;3.35;;;17.10;99.90;;;17.14;93.61;99610.63;5165271;28;20495;-70
2022/05/24 02:54:24;;;;;;;4.85;2.50;;;17.00;99.90;;;17.06;95.00;99595.78;5165116;28;20498;-69
2022/05/24 02:56:58;;;;;;;3.25;2.40;;;16.90;99.90;;;17.03;96.00;99595.84;5164737;28;20046;-69
2022/05/24 02:59:30;;;;;;;3.15;2.10;;;16.80;99.90;;;17.03;96.85;99602.88;5164867;28;20459;-70
2022/05/24 03:02:06;;;;;;;2.47;2.00;;;16.80;99.90;;;17.01;97.07;99596.72;5165081;28;20500;-69
2022/05/24 03:04:38;;;;;;;2.47;1.70;;;16.80;99.90;;;16.99;97.47;99602.00;5165185;28;20050;-71
2022/05/24 03:10:00;;;;;;;2.65;1.73;;;16.70;99.90;;;16.92;98.34;99600.34;5164725;28;20116;-70
2022/05/24 03:15:22;;;;;;;3.42;2.25;;;16.70;99.90;;;16.87;97.88;99614.41;5164981;28;20176;-70
2022/05/24 03:17:55;;;;;;;4.32;2.40;;;16.60;99.90;;;16.84;98.31;99617.97;5164611;28;20050;-70
2022/05/24 03:20:28;;;;;;;3.28;2.00;;;16.60;99.90;;;16.83;98.67;99626.75;5164831;28;20547;-70
2022/05/24 03:23:02;;;;;;;3.30;2.17;;;16.60;99.90;;;16.81;98.70;99624.09;5165053;28;20488;-70
2022/05/24 03:25:34;;;;;;;3.58;2.22;;;16.60;99.90;;;16.81;99.16;99631.13;5164819;28;20046;-70
2022/05/24 03:28:08;;;;;;;3.10;2.35;;;16.60;99.90;;;16.80;99.39;99616.22;5164656;28;20065;-71
2022/05/24 03:30:44;;;;;;;3.30;1.88;;;16.60;99.90;;;16.80;99.77;99619.75;5165119;28;20050;-71
2022/05/24 03:33:18;;;;;;;2.70;1.70;;;16.60;99.90;;;16.79;99.76;99618.00;5164678;28;20058;-71
2022/05/24 03:35:50;;;;;;;3.97;2.40;;;16.60;99.90;;;16.80;99.98;99621.50;5164841;28;20051;-70
2022/05/24 03:38:22;;;;;;;3.30;1.77;;;16.60;99.90;;;16.80;100.00;99619.75;5164705;28;20050;-70
2022/05/24 03:40:54;;;;;;;4.03;2.38;;;16.50;99.90;;;16.79;100.00;99619.75;5164997;28;20077;-69
2022/05/24 03:43:27;;;;;;;3.08;1.95;;;16.50;99.90;;;16.79;100.00;99625.88;5164908;28;20483;-71
2022/05/24 03:46:04;;;;;;;3.50;1.90;;;16.50;99.90;;;16.79;100.00;99619.75;5164430;28;20046;-70
2022/05/24 03:48:38;;;;;;;3.10;2.15;;;16.60;99.90;;;16.77;100.00;99611.88;5164508;28;20419;-70
2022/05/24 03:51:10;;;;;;;3.42;2.45;;;16.50;99.90;;;16.76;100.00;99618.03;5164516;28;20050;-70
2022/05/24 03:53:42;;;;;;;3.35;2.03;;;16.50;99.90;;;16.76;100.00;99625.06;5164714;28;20050;-70
2022/05/24 03:56:14;;;;;;;3.40;2.38;;;16.50;99.90;;;16.75;100.00;99623.28;5197056;23;20046;-86
2022/05/24 03:58:46;;;;;;;4.07;2.60;;;16.50;99.90;;;16.74;100.00;99621.56;5200936;28;20406;-86
2022/05/24 04:01:18;;;;;;;4.00;2.42;;;16.50;99.90;;;16.72;100.00;99621.56;5198492;28;20395;-87
2022/05/24 04:03:52;;;;;;;3.42;2.22;;;16.50;99.90;;;16.70;100.00;99626.00;5208547;28;20050;-86
2022/05/24 04:06:24;;;;;;;5.03;2.20;;;16.50;99.90;;;16.69;100.00;99634.75;5210275;28;20054;-88
2022/05/24 04:08:56;;;;;;;4.20;2.67;;;16.40;99.90;;;16.67;100.00;99640.88;5223112;28;20033;-91
2022/05/24 04:11:27;;;;;;;4.38;2.70;;;16.40;99.90;;;16.65;100.00;99632.13;5230919;28;20055;-89
2022/05/24 04:13:59;;;;;;;3.83;2.13;;;16.40;99.90;;;16.55;99.27;99637.44;5214496;28;20105;-88
2022/05/24 04:16:32;;;;;;;3.65;2.03;;;16.30;99.90;;;16.40;97.43;99637.56;5195990;28;20057;-88
2022/05/24 04:19:05;;;;;;;4.40;2.42;;;16.20;99.90;;;16.31;96.68;99639.41;5189647;28;20054;-87
2022/05/24 04:21:38;;;;;;;4.97;1.95;;;16.10;99.90;;;16.20;95.90;99647.34;5190571;28;20486;-86
2022/05/24 04:24:10;;;;;;;6.20;2.10;;;16.00;99.90;;;16.14;95.86;99665.78;5189984;28;20050;-88
2022/05/24 04:26:42;;;;;;;4.18;2.17;;;15.90;99.90;;;16.11;96.00;99671.97;5189835;28;20057;-86
2022/05/24 04:29:15;;;;;;;4.05;2.30;;;15.90;99.90;;;16.13;96.35;99687.72;5189469;28;20068;-88
2022/05/24 04:31:47;;;;;;;3.85;2.00;;;15.90;99.90;;;16.13;96.35;99714.00;5189744;28;20046;-88
2022/05/24 04:34:20;;;;;;;2.70;1.73;;;15.90;99.90;;;16.11;95.96;99729.78;5189516;28;20455;-87
2022/05/24 04:36:52;;;;;;;5.75;2.15;;;15.90;99.90;;;16.09;95.43;99743.78;5189971;28;20046;-86
2022/05/24 04:39:24;;;;;;;5.13;2.03;;;15.90;99.90;;;16.05;95.06;99747.34;5189861;28;20049;-88
2022/05/24 04:44:47;;;;;;;3.00;1.55;;;15.80;99.90;;;15.95;93.61;99747.34;5208284;28;20077;-91
2022/05/24 04:47:22;;;;;;;2.25;1.40;;;15.70;99.90;;;15.89;93.15;99739.50;5206295;28;20308;-84
2022/05/24 04:49:58;;;;;;;3.80;1.60;;;15.70;99.90;;;15.85;93.43;99737.78;5193388;28;20053;-88
2022/05/24 04:52:35;;;;;;;2.92;1.52;;;15.60;99.90;;;15.84;93.32;99745.63;5195806;28;20058;-86
2022/05/24 04:55:12;;;;;;;2.13;1.23;;;15.60;99.90;;;15.81;93.07;99757.03;5214055;28;20132;-86
2022/05/24 04:57:44;;;;;;;2.83;1.40;;;15.60;99.90;;;15.79;93.01;99766.69;5215661;28;20132;-85
2022/05/24 05:00:18;;;;;;;3.65;1.50;;;15.60;99.90;;;15.77;93.61;99768.44;5214801;28;20053;-87
2022/05/24 05:02:50;;;;;;;3.17;1.30;;;15.50;99.90;;;15.74;93.66;99777.22;5213751;28;20099;-86
2022/05/24 05:05:23;;;;;;;2.22;1.45;;;15.60;99.90;;;15.70;93.64;99780.72;5207286;28;20042;-86
2022/05/24 05:07:55;;;;;;;3.80;1.30;;;15.50;99.90;;;15.66;93.70;99796.50;5182406;28;20054;-86
2022/05/24 05:10:27;;;;;;;2.60;1.80;;;15.40;99.90;;;15.66;94.04;99799.13;5195388;28;20060;-86
2022/05/24 05:12:59;;;;;;;5.32;1.77;;;15.50;99.90;;;15.62;93.47;99794.75;5194047;28;20054;-86
2022/05/24 05:15:34;;;;;;;2.70;1.48;;;15.50;99.90;;;15.56;93.49;99795.59;5191218;28;20053;-86
2022/05/24 05:18:08;;;;;;;4.32;1.58;;;15.40;99.90;;;15.55;93.93;99798.22;5185667;28;20081;-86
2022/05/24 05:20:43;;;;;;;2.42;1.60;;;15.40;99.90;;;15.52;93.61;99798.22;5183041;28;20121;-86
2022/05/24 05:23:17;;;;;;;3.58;1.63;;;15.30;99.90;;;15.48;94.02;99800.84;5176820;28;20054;-87
2022/05/24 05:25:49;;;;;;;2.90;1.55;;;15.30;99.90;;;15.47;94.30;99806.13;5178160;28;20141;-86
2022/05/24 05:28:21;;;;;;;3.22;1.40;;;15.30;99.90;;;15.46;94.56;99797.38;5182063;28;20084;-84
2022/05/24 05:33:47;;;;;;;3.80;1.50;;;15.30;99.90;;;15.44;95.08;99809.59;5188767;28;20049;-86
2022/05/24 05:36:21;;;;;;;3.85;1.83;;;15.20;99.90;;;15.44;95.51;99812.22;5180660;28;20095;-88
2022/05/24 05:38:53;;;;;;;4.30;1.50;;;15.20;99.90;;;15.41;95.15;99809.63;5183304;28;20072;-86
2022/05/24 05:41:29;;;;;;;2.67;1.23;;;15.20;99.90;;;15.39;95.24;99821.88;5175264;28;20393;-85
2022/05/24 05:44:01;;;;;;;2.72;1.83;;;15.20;99.90;;;15.40;95.10;99820.13;5173372;28;20141;-85
2022/05/24 05:46:33;;;;;;;2.33;1.42;;;15.20;99.90;;;15.38;94.77;99825.34;5178712;28;20054;-86
2022/05/24 05:49:05;;;;;;;3.42;1.23;;;15.20;99.90;;;15.38;95.12;99827.97;5189122;28;20042;-86
2022/05/24 05:51:39;;;;;;;3.42;1.50;;;15.20;99.90;;;15.39;95.26;99842.88;5169821;28;20050;-86
2022/05/24 05:54:11;;;;;;;2.38;1.30;;;15.20;99.90;;;15.38;95.10;99841.09;5173883;28;20054;-86
2022/05/24 05:56:43;;;;;;;3.13;1.52;;;15.20;99.90;;;15.39;95.52;99848.13;5174527;28;20046;-86
2022/05/24 05:59:15;;;;;;;2.28;1.27;;;15.20;99.90;;;15.40;95.86;99854.25;5188936;28;20508;-86
2022/05/24 06:01:47;;;;;;;2.63;1.48;;;15.20;99.90;;;15.40;95.92;99859.53;5194987;28;20064;-86
2022/05/24 06:04:19;;;;;;;3.78;1.70;;;15.20;99.90;;;15.39;95.48;99863.91;5187125;28;20057;-86
2022/05/24 06:06:53;;;;;;;2.10;1.40;;;15.20;99.90;;;15.35;95.09;99867.38;5177918;28;20061;-86
2022/05/24 06:09:25;;;;;;;3.25;1.33;;;15.20;99.90;;;15.32;95.13;99869.13;5173308;28;20050;-88
2022/05/24 06:11:57;;;;;;;3.33;1.45;;;15.10;99.90;;;15.29;95.27;99877.88;5181704;28;20137;-87
2022/05/24 06:14:30;;;;;;;5.43;1.55;;;15.10;99.90;;;15.25;95.02;99873.47;5200972;28;20130;-88
2022/05/24 06:17:02;;;;;;;4.03;1.30;;;15.10;99.90;;;15.16;94.00;99887.47;5183021;28;20049;-86
2022/05/24 06:19:35;;;;;;;3.08;1.40;;;15.00;99.90;;;15.12;94.16;99887.47;5188048;28;20046;-86
2022/05/24 06:22:08;;;;;;;2.85;1.17;;;14.90;99.90;;;15.10;94.44;99891.84;5179463;28;20126;-86
2022/05/24 06:24:40;;;;;;;1.80;1.02;;;14.90;99.90;;;15.09;94.12;99890.09;5180749;28;20050;-86
2022/05/24 06:27:13;;;;;;;1.60;1.05;;;14.90;99.90;;;15.03;93.27;99876.97;5196083;28;20049;-87
2022/05/24 06:29:45;;;;;;;2.63;1.35;;;14.90;99.90;;;14.92;92.98;99872.53;5192600;28;20057;-86
2022/05/24 06:32:18;;;;;;;1.83;1.05;;;14.80;99.90;;;14.84;92.77;99895.28;5194588;28;20058;-87
2022/05/24 06:34:53;;;;;;;2.22;0.95;;;14.70;99.90;;;14.77;93.17;99893.50;5193766;28;20431;-86
2022/05/24 06:37:26;;;;;;;1.33;1.20;;;14.60;99.90;;;14.73;92.79;99896.97;5193265;28;20045;-87
2022/05/24 06:39:58;;;;;;;1.88;1.20;;;14.60;99.90;;;14.68;92.75;99875.13;5192057;28;20046;-86
2022/05/24 06:42:30;;;;;;;2.28;1.05;;;14.60;99.90;;;14.63;92.58;99900.44;5193220;28;20056;-87
2022/05/24 06:45:02;;;;;;;1.98;1.02;;;14.50;99.90;;;14.65;93.29;99896.94;5193233;28;20058;-86
2022/05/24 06:47:34;;;;;;;2.20;1.05;;;14.50;99.90;;;14.66;93.15;99889.97;5193673;28;20431;-85
2022/05/24 06:50:08;;;;;;;1.48;1.00;;;14.50;99.90;;;14.70;93.79;99883.88;5191331;28;20137;-86
2022/05/24 06:52:42;;;;;;;1.58;1.08;;;14.50;99.90;;;14.75;94.15;99905.75;5193030;28;20045;-87
2022/05/24 06:55:15;;;;;;;1.02;0.93;;;14.60;99.90;;;14.81;94.71;99937.25;5192803;28;20057;-86
2022/05/24 06:57:47;;;;;;;1.45;0.93;;;14.60;99.90;;;14.87;95.02;99942.53;5192860;28;20045;-88
2022/05/24 07:03:14;;;;;;;2.22;1.02;;;14.70;99.90;;;14.95;94.45;99936.44;5193089;28;20077;-87
2022/05/24 07:05:47;;;;;;;2.83;0.90;;;14.80;99.90;;;15.01;94.17;99944.31;5193473;28;20058;-87
2022/05/24 07:08:20;;;;;;;1.88;0.73;;;14.80;99.90;;;15.05;94.08;99952.19;5192390;28;20052;-87
2022/05/24 07:10:52;;;;;;;1.35;0.90;;;14.90;99.90;;;15.11;93.84;99957.47;5193439;28;20070;-87
2022/05/24 07:13:24;;;;;;;2.15;0.90;;;14.90;99.90;;;15.17;93.97;99962.72;5193328;28;20060;-87
2022/05/24 07:15:56;;;;;;;3.35;1.02;;;14.90;99.90;;;15.22;93.34;99964.50;5192702;28;20057;-87
2022/05/24 07:18:28;;;;;;;2.30;1.25;;;15.00;99.90;;;15.23;93.00;99975.00;5193509;28;20073;-85
2022/05/24 07:21:01;;;;;;;1.73;1.10;;;15.00;99.90;;;15.26;92.58;99974.13;5195519;28;20066;-85
2022/05/24 07:23:37;;;;;;;3.20;1.40;;;15.00;99.90;;;15.27;92.40;99961.03;5193848;28;20045;-86
2022/05/24 07:26:14;;;;;;;1.40;0.95;;;15.00;99.90;;;15.35;92.74;99968.91;5195630;28;20049;-85
2022/05/24 07:28:46;;;;;;;2.20;1.08;;;15.10;99.90;;;15.42;92.22;99968.91;5195584;28;20152;-86
2022/05/24 07:31:18;;;;;;;1.55;1.25;;;15.20;99.90;;;15.73;96.76;99971.63;5194612;28;20050;-83
2022/05/24 07:33:50;;;;;;;2.45;1.30;;;15.50;99.90;;;16.23;95.41;99981.25;5194488;28;20061;-81
2022/05/24 07:36:22;;;;;;;2.88;1.08;;;16.10;99.90;;;16.69;91.09;99974.16;5193637;28;20486;-83
2022/05/24 07:38:56;;;;;;;2.28;0.90;;;16.60;99.90;;;17.20;87.84;99973.97;5189539;28;20041;-81
2022/05/24 07:47:06;;;;;;;2.03;0.70;;;17.60;99.90;;;18.30;79.59;99991.66;5176048;28;20046;-81
2022/05/24 07:49:39;;;;;;;2.00;0.60;;;17.90;99.90;;;18.58;77.46;99995.78;5190939;28;20470;-82
2022/05/24 07:52:11;;;;;;;1.05;0.80;;;18.00;99.90;;;19.01;77.01;99999.72;5191987;28;20056;-80
2022/05/24 07:54:44;;;;;;;1.33;0.85;;;18.30;99.90;;;19.48;74.74;99996.44;5194420;28;20060;-82
2022/05/24 07:57:16;;;;;;;0.73;0.63;;;18.70;99.90;;;19.92;71.98;100002.88;5195293;28;20053;-82
2022/05/24 07:59:48;;;;;;;1.63;1.05;;;19.00;99.90;;;20.15;68.65;100011.34;5185942;28;20390;-81
2022/05/24 08:02:22;;;;;;;3.33;0.80;;;19.30;99.90;;;20.05;67.99;99999.16;5206540;28;20053;-82
2022/05/24 08:04:55;;;;;;;2.65;0.70;;;19.30;99.90;;;20.00;67.85;100006.28;5215420;28;20049;-80
2022/05/24 08:07:27;;;;;;;1.23;0.75;;;19.30;99.90;;;19.90;66.00;100009.97;5207777;28;20056;-81
2022/05/24 08:10:00;;;;;;;3.25;0.40;;;19.20;99.90;;;19.80;66.02;100006.59;5197263;28;20060;-81
2022/05/24 08:12:34;;;;;;;4.40;0.80;;;19.10;99.90;;;19.86;65.78;100001.22;5213045;28;20056;-80
2022/05/24 08:15:07;;;;;;;2.33;0.60;;;19.10;99.90;;;20.23;65.30;100006.78;5197239;28;20076;-80
2022/05/24 08:17:40;;;;;;;0.88;0.63;;;19.30;99.90;;;20.35;64.73;100007.47;5194452;28;20046;-83
2022/05/24 08:20:13;;;;;;;4.43;0.70;;;19.40;99.90;;;20.67;63.20;100010.44;5194579;28;20057;-82
2022/05/24 08:22:45;;;;;;;1.48;0.63;;;19.50;99.90;;;20.82;61.00;100009.28;5209894;28;20105;-80
2022/05/24 08:25:18;;;;;;;2.22;0.77;;;19.60;99.50;;;21.08;60.61;100014.03;5195498;28;20050;-81
2022/05/24 08:27:50;;;;;;;0.95;0.63;;;19.70;99.20;;;21.54;59.51;100018.41;5195698;28;20419;-81
2022/05/24 08:30:23;;;;;;;2.17;0.47;;;19.90;99.00;;;22.41;57.35;100017.19;5193987;28;20054;-81
2022/05/24 08:32:56;;;;;;;3.00;0.70;;;20.30;98.60;;;24.27;51.95;100020.59;5194231;28;20072;-80
2022/05/24 08:35:28;;;;;;;0.80;0.35;;;21.20;97.30;;;25.95;46.25;100019.72;5206425;28;20049;-81
2022/05/24 08:38:00;;;;;;;2.20;0.40;;;22.40;93.80;;;25.67;45.22;100028.81;5203043;28;20038;-81
2022/05/24 08:40:36;;;;;;;1.73;0.40;;;22.70;91.00;;;25.89;45.04;100030.69;5207156;28;20053;-85
2022/05/24 08:43:36;;;;;;;0.60;0.50;;;23.00;90.00;;;24.98;46.35;100040.34;5211174;28;20404;-82
2022/05/24 08:49:08;;;;;;;1.70;0.50;;;22.90;88.70;;;27.47;41.92;100030.06;5201002;28;20046;-84
2022/05/24 08:51:45;;;;;;;0.98;0.43;;;24.10;83.90;;;29.32;37.63;100043.03;5197828;28;20064;-81
2022/05/24 08:54:22;;;;;;;1.33;0.50;;;25.40;77.30;;;30.60;35.18;100042.94;5219691;28;20053;-83
2022/05/24 08:57:01;;;;;;;2.30;0.40;;;26.50;71.40;;;31.45;34.13;100044.91;5208540;28;20059;-85
2022/05/24 08:59:39;;;;;;;1.60;0.70;;;27.40;69.20;;;30.84;31.89;100043.28;5207935;28;20423;-82
2022/05/24 09:02:11;;;;;;;1.85;0.50;;;27.50;62.10;;;28.58;35.26;100046.06;5201559;28;20057;-83
2022/05/24 09:04:43;;;;;;;1.35;0.45;;;26.40;63.20;;;26.65;38.19;100059.56;5199494;28;20058;-84
2022/05/24 09:07:24;;;;;;;0.95;0.40;;;25.20;64.90;;;24.99;41.24;100068.72;5200423;28;20148;-84
2022/05/24 09:10:06;;;;;;;0.80;0.40;;;24.00;67.50;;;23.69;44.33;100060.59;5202639;28;20122;-82
2022/05/24 09:12:53;;;;;;;0.40;0.40;;;22.80;70.60;;;22.87;46.53;100063.81;5208792;28;20059;-83
2022/05/24 09:16:17;;;;;;;2.25;0.50;;;22.10;73.90;;;22.28;48.18;100068.84;5219765;28;20049;-85
2022/05/24 09:19:00;;;;;;;0.93;0.57;;;21.60;75.80;;;22.23;48.22;100076.03;5181894;28;20053;-84
2022/05/24 09:21:35;;;;;;;1.17;0.70;;;21.30;76.80;;;22.19;48.04;100074.38;5181732;28;20205;-86
2022/05/24 09:24:19;;;;;;;1.25;0.32;;;21.20;77.20;;;22.28;47.54;100075.94;5182463;28;20137;-83
2022/05/24 09:27:08;;;;;;;1.00;0.40;;;21.20;77.00;;;22.03;47.80;100072.97;5179459;28;20068;-87
2022/05/24 09:30:03;;;;;;;1.45;0.50;;;21.10;77.50;;;21.75;48.84;100073.59;5182099;28;20046;-84
2022/05/24 09:32:39;;;;;;;0.43;0.43;;;21.00;77.90;;;21.44;49.75;100080.47;5204403;28;20081;-84
2022/05/24 09:35:23;;;;;;;1.08;0.47;;;20.80;78.80;;;21.08;50.09;100085.59;5212057;28;20068;-83
2022/05/24 09:38:13;;;;;;;1.17;0.32;;;20.50;78.90;;;20.69;50.81;100090.72;5194164;28;20106;-81
2022/05/24 09:40:53;;;;;;;2.58;0.60;;;20.20;79.60;;;20.37;51.33;100093.00;5205425;28;20088;-82
2022/05/24 09:43:29;;;;;;;1.20;0.38;;;19.90;80.10;;;20.12;52.96;100089.88;5194693;28;20073;-85
2022/05/24 09:46:07;;;;;;;0.50;0.50;;;19.70;83.00;;;20.22;54.04;100104.72;5185176;28;20118;-82
2022/05/24 09:48:56;;;;;;;0.82;0.47;;;19.70;84.20;;;20.64;54.41;100095.22;5198398;28;20076;-85
2022/05/24 09:51:35;;;;;;;0.70;0.65;;;20.00;86.00;;;20.80;52.12;100098.44;5196313;28;20038;-84
2022/05/24 09:54:14;;;;;;;0.43;0.43;;;20.10;84.40;;;20.85;50.43;100101.91;5200749;28;20080;-87
2022/05/24 09:57:04;;;;;;;0.85;0.30;;;20.20;81.20;;;20.81;49.97;100098.44;5226856;28;20049;-84
2022/05/24 09:59:40;;;;;;;1.10;0.43;;;20.20;80.00;;;20.69;49.97;100100.44;5272921;23;20053;-66
2022/05/24 10:02:29;;;;;;;0.82;0.75;;;20.20;79.80;;;20.56;51.52;100102.44;5199865;28;20422;-65
2022/05/24 10:05:02;;;;;;;0.63;0.50;;;20.10;81.70;;;20.43;52.24;100099.06;5190470;28;20046;-65
2022/05/24 10:07:39;;;;;;;0.52;0.43;;;20.00;82.90;;;20.33;52.98;100103.63;5191120;28;20501;-64
2022/05/24 10:10:20;;;;;;;1.67;0.60;;;19.90;83.60;;;20.27;53.57;100106.38;5201114;28;20088;-65
2022/05/24 10:13:03;;;;;;;0.88;0.50;;;19.90;84.70;;;20.23;53.58;100104.69;5202463;28;20500;-65
2022/05/24 10:15:43;;;;;;;2.08;0.50;;;19.80;84.60;;;20.28;53.50;100113.44;5193466;28;20053;-65
2022/05/24 10:18:43;;;;;;;0.50;0.50;;;19.90;84.70;;;20.36;52.78;100120.38;5194117;28;20095;-65
2022/05/24 10:21:24;;;;;;;1.10;0.82;;;19.90;83.60;;;20.61;52.54;100116.47;5205595;28;20414;-65
2022/05/24 10:24:08;;;;;;;0.30;0.30;;;20.00;84.20;;;20.89;51.67;100121.28;5206377;28;20053;-64
2022/05/24 10:26:56;;;;;;;0.70;0.40;;;20.30;83.20;;;21.16;51.60;100120.75;5206188;28;20045;-64
2022/05/24 10:29:47;;;;;;;0.50;0.50;;;20.50;83.40;;;21.28;50.08;100115.25;5205812;28;20111;-64
2022/05/24 10:39:08;;;;;;;3.22;0.80;;;20.70;80.50;;;21.10;49.68;100136.75;5193477;28;20077;-65
2022/05/24 10:41:56;;;;;;;0.80;0.57;;;20.60;79.60;;;20.98;49.94;100137.00;5165468;28;20046;-64
2022/05/24 10:44:36;;;;;;;0.57;0.50;;;20.50;79.80;;;20.95;50.03;100143.22;5165984;28;20061;-64
2022/05/24 10:47:24;;;;;;;2.08;0.60;;;20.40;79.80;;;20.97;49.69;100135.25;5165461;28;20050;-65
2022/05/24 10:50:01;;;;;;;4.15;0.60;;;20.40;79.70;;;20.99;49.39;100133.44;5175790;28;20041;-64
2022/05/24 10:52:42;;;;;;;0.80;0.50;;;20.40;79.10;;;20.94;49.81;100130.00;5196591;28;20053;-63
2022/05/24 10:55:21;;;;;;;0.63;0.60;;;20.40;79.60;;;21.32;49.96;100126.66;5197926;28;20410;-65
2022/05/24 10:57:56;;;;;;;0.60;0.38;;;20.60;80.50;;;21.72;49.07;100133.81;5206302;28;20079;-65
2022/05/24 11:00:35;;;;;;;1.58;1.00;;;20.90;79.60;;;22.21;49.05;100136.25;5189934;28;20061;-65
2022/05/24 11:03:12;;;;;;;1.35;0.40;;;21.40;80.20;;;22.62;47.33;100132.59;5196646;28;20049;-65
2022/05/24 11:05:47;;;;;;;2.80;1.58;;;21.70;77.90;;;22.89;46.63;100132.88;5205942;28;20053;-67
2022/05/24 11:08:38;;;;;;;19.02;7.22;;;22.00;77.10;;;23.00;49.20;100129.00;5205916;28;20056;-65
2022/05/24 11:11:26;;;;;;;16.90;7.85;;;22.20;80.00;;;23.13;47.12;100139.28;5206158;28;20402;-65
2022/05/24 11:14:07;;;;;;;39.72;17.90;;;22.40;77.20;;;23.08;46.13;100130.56;5205684;28;20046;-63
2022/05/24 11:16:43;;;;;;;31.92;15.15;;;22.40;75.20;;;22.99;45.17;100131.69;5206176;28;20250;-64
2022/05/24 11:19:18;;;;;;;19.70;9.05;;;22.30;73.60;;;22.98;45.68;100128.16;5205804;28;20049;-64
2022/05/24 11:22:03;;;;;;;12.80;5.82;;;22.30;74.20;;;23.05;44.13;100126.22;5206235;28;20052;-66
2022/05/24 11:24:44;;;;;;;11.30;5.10;;;22.30;72.40;;;23.15;45.24;100134.84;5205803;28;20045;-64
2022/05/24 11:27:18;;;;;;;10.32;4.00;;;22.40;73.50;;;23.26;45.08;100130.06;5208471;28;20218;-67
2022/05/24 11:29:54;;;;;;;22.25;10.57;;;22.40;73.30;;;23.45;45.95;100128.63;5210272;28;20421;-65